Time;durP1;ratioP1;P1;durP2;ratioP2;P2;SDS_P1;SDS_P2;PMS_P1;PMS_P2;Temp;Humidity;BMP_temperature;BMP_pressure;BME280_temperature;BME280_humidity;BME280_pressure;Samples;Min_cycle;Max_cycle;Signal;HPM_P1;HPM_P2
2021/07/14 00:02:19;;;;;;;3.37;2.80;;;14.10;99.90;;;;;;4996263;28;20460;-84
2021/07/14 00:04:46;;;;;;;2.33;1.93;;;14.10;99.90;;;;;;4996193;28;20441;-84
2021/07/14 00:07:13;;;;;;;2.50;2.03;;;14.10;99.90;;;;;;4995952;28;20437;-84
2021/07/14 00:09:39;;;;;;;2.73;2.53;;;14.10;99.90;;;;;;4995895;28;20453;-84
2021/07/14 00:12:09;;;;;;;2.70;2.50;;;14.10;99.90;;;;;;4996135;28;20449;-84
2021/07/14 00:17:30;;;;;;;2.50;2.27;;;14.10;99.90;;;;;;4995868;28;20459;-84
2021/07/14 00:22:41;;;;;;;5.07;2.47;;;14.10;99.90;;;;;;4995832;28;20408;-84
2021/07/14 00:25:11;;;;;;;2.90;2.63;;;14.10;99.90;;;;;;4995876;28;20521;-84
2021/07/14 00:27:41;;;;;;;2.30;2.10;;;14.10;99.90;;;;;;4995856;28;20873;-84
2021/07/14 00:30:14;;;;;;;3.70;2.90;;;14.00;99.90;;;;;;4995823;28;20472;-84
2021/07/14 00:32:41;;;;;;;2.70;2.50;;;14.00;99.90;;;;;;4995973;28;20441;-84
2021/07/14 00:35:10;;;;;;;3.20;2.90;;;14.00;99.90;;;;;;4995639;28;20497;-84
2021/07/14 00:37:37;;;;;;;2.70;2.50;;;13.90;99.90;;;;;;4996012;28;20453;-84
2021/07/14 00:40:08;;;;;;;2.93;2.70;;;13.90;99.90;;;;;;4995496;28;20479;-84
2021/07/14 00:42:35;;;;;;;3.60;2.50;;;13.90;99.90;;;;;;4994963;28;20455;-80
2021/07/14 00:45:01;;;;;;;5.13;2.90;;;13.90;99.90;;;;;;4995438;28;20638;-80
2021/07/14 00:47:33;;;;;;;3.00;2.53;;;13.80;99.90;;;;;;4994979;28;20495;-80
2021/07/14 00:50:01;;;;;;;2.77;2.60;;;13.80;99.90;;;;;;4995283;28;20472;-80
2021/07/14 00:52:28;;;;;;;4.80;2.40;;;13.80;99.90;;;;;;4995421;28;20460;-89
2021/07/14 00:54:56;;;;;;;2.60;2.40;;;13.80;99.90;;;;;;4996045;28;20852;-89
2021/07/14 00:57:26;;;;;;;4.70;3.10;;;13.80;99.90;;;;;;4995731;28;20987;-89
2021/07/14 00:59:53;;;;;;;2.70;2.50;;;13.80;99.90;;;;;;4995840;28;20500;-89
2021/07/14 01:02:20;;;;;;;3.10;2.80;;;13.80;99.90;;;;;;4995908;28;20459;-89
2021/07/14 01:04:55;;;;;;;3.57;3.10;;;13.70;99.90;;;;;;4995664;28;20436;-88
2021/07/14 01:07:25;;;;;;;3.33;2.67;;;13.80;99.90;;;;;;4995207;28;20424;-83
2021/07/14 01:09:56;;;;;;;3.07;2.80;;;13.70;99.90;;;;;;4994950;28;20469;-83
2021/07/14 01:12:30;;;;;;;4.70;2.63;;;13.70;99.90;;;;;;4995224;28;20449;-83
2021/07/14 01:15:05;;;;;;;3.37;2.63;;;13.70;99.90;;;;;;4994856;28;20472;-83
2021/07/14 01:17:36;;;;;;;4.20;3.00;;;13.60;99.90;;;;;;4994841;28;20443;-83
2021/07/14 01:20:22;;;;;;;3.50;3.20;;;13.60;99.90;;;;;;4994423;28;20475;-83
2021/07/14 01:22:58;;;;;;;6.53;4.93;;;13.60;99.90;;;;;;4994450;28;20436;-83
2021/07/14 01:25:38;;;;;;;3.27;2.57;;;13.60;99.90;;;;;;4994960;28;20495;-83
2021/07/14 01:28:08;;;;;;;2.97;2.77;;;13.50;99.90;;;;;;4994611;28;20433;-83
2021/07/14 01:30:35;;;;;;;3.43;3.00;;;13.50;99.90;;;;;;4994582;28;20456;-83
2021/07/14 01:33:03;;;;;;;4.37;4.03;;;13.60;99.90;;;;;;4994496;28;20448;-83
2021/07/14 01:35:35;;;;;;;3.20;2.90;;;13.60;99.90;;;;;;4994403;28;20484;-83
2021/07/14 01:38:02;;;;;;;3.53;2.63;;;13.60;99.90;;;;;;4994458;28;20433;-83
2021/07/14 01:40:30;;;;;;;3.57;3.00;;;13.50;99.90;;;;;;4994397;28;20463;-83
2021/07/14 01:43:00;;;;;;;3.90;2.80;;;13.50;99.90;;;;;;4994376;28;20457;-83
2021/07/14 01:45:31;;;;;;;3.07;2.83;;;13.50;99.90;;;;;;4994733;28;20818;-83
2021/07/14 01:48:00;;;;;;;3.20;3.00;;;13.50;99.90;;;;;;4993875;28;21003;-83
2021/07/14 01:50:29;;;;;;;5.93;3.13;;;13.50;99.90;;;;;;4994336;28;20459;-82
2021/07/14 01:52:57;;;;;;;7.17;3.40;;;13.50;99.90;;;;;;4994220;28;20448;-83
2021/07/14 01:55:25;;;;;;;5.20;3.50;;;13.50;99.90;;;;;;4993789;28;21028;-83
2021/07/14 01:57:55;;;;;;;6.13;4.00;;;13.60;99.90;;;;;;4993862;28;20436;-83
2021/07/14 02:00:22;;;;;;;4.63;3.43;;;13.60;99.90;;;;;;4994168;28;20448;-83
2021/07/14 02:02:54;;;;;;;3.97;3.50;;;13.50;99.90;;;;;;4994116;28;20440;-83
2021/07/14 02:05:22;;;;;;;3.67;3.37;;;13.50;99.90;;;;;;4994111;28;20524;-83
2021/07/14 02:07:49;;;;;;;3.17;2.93;;;13.40;99.90;;;;;;4994015;28;20459;-82
2021/07/14 02:10:16;;;;;;;3.80;3.50;;;13.50;99.90;;;;;;4993670;28;20456;-81
2021/07/14 02:12:46;;;;;;;4.60;3.60;;;13.40;99.90;;;;;;4994038;28;20452;-80
2021/07/14 02:15:14;;;;;;;4.50;4.10;;;13.40;99.90;;;;;;4993897;28;20480;-81
2021/07/14 02:17:53;;;;;;;3.73;3.43;;;13.40;99.90;;;;;;4994004;28;20451;-80
2021/07/14 02:20:21;;;;;;;4.10;3.40;;;13.40;99.90;;;;;;4993927;28;20436;-80
2021/07/14 02:22:49;;;;;;;5.93;4.03;;;13.40;99.90;;;;;;4993922;28;20448;-80
2021/07/14 02:25:16;;;;;;;5.03;3.40;;;13.40;99.90;;;;;;4993888;28;20448;-80
2021/07/14 02:27:44;;;;;;;4.00;3.70;;;13.40;99.90;;;;;;4993884;28;20459;-80
2021/07/14 02:30:16;;;;;;;7.20;3.90;;;13.40;99.90;;;;;;4993544;28;20461;-80
2021/07/14 02:32:43;;;;;;;3.97;3.50;;;13.40;99.90;;;;;;4993911;28;20441;-80
2021/07/14 02:35:13;;;;;;;5.00;3.53;;;13.40;99.90;;;;;;4993674;28;20484;-80
2021/07/14 02:37:46;;;;;;;5.10;3.80;;;13.40;99.90;;;;;;4993806;28;20444;-80
2021/07/14 02:40:15;;;;;;;4.70;3.93;;;13.40;99.90;;;;;;4993775;28;20877;-79
2021/07/14 02:42:43;;;;;;;3.50;3.20;;;13.30;99.90;;;;;;4993759;28;20456;-80
2021/07/14 02:45:11;;;;;;;5.50;3.30;;;13.30;99.90;;;;;;4993467;28;20456;-80
2021/07/14 02:47:41;;;;;;;4.20;3.80;;;13.40;99.90;;;;;;4993303;28;20484;-80
2021/07/14 02:50:16;;;;;;;5.93;3.20;;;13.30;99.90;;;;;;4993659;28;20523;-80
2021/07/14 02:52:46;;;;;;;4.30;3.90;;;13.30;99.90;;;;;;4993732;28;20490;-80
2021/07/14 02:55:16;;;;;;;5.93;3.37;;;13.30;99.90;;;;;;4993599;28;20491;-80
2021/07/14 02:57:44;;;;;;;4.23;3.80;;;13.30;99.90;;;;;;4993350;28;20455;-80
2021/07/14 03:00:12;;;;;;;3.17;2.87;;;13.30;99.90;;;;;;4993533;28;20472;-79
2021/07/14 03:02:41;;;;;;;5.37;3.53;;;13.30;99.90;;;;;;4993521;28;20437;-80
2021/07/14 03:05:09;;;;;;;4.40;3.50;;;13.30;99.90;;;;;;4993520;28;20908;-80
2021/07/14 03:07:38;;;;;;;3.80;3.50;;;13.30;99.90;;;;;;4993543;28;20448;-80
2021/07/14 03:10:07;;;;;;;3.80;3.50;;;13.30;99.90;;;;;;4993387;28;20479;-80
2021/07/14 03:12:34;;;;;;;5.67;3.50;;;13.30;99.90;;;;;;4993767;28;20815;-79
2021/07/14 03:15:06;;;;;;;4.23;3.83;;;13.20;99.90;;;;;;4993163;28;21005;-80
2021/07/14 03:17:33;;;;;;;6.27;3.70;;;13.20;99.90;;;;;;4993506;28;20418;-80
2021/07/14 03:20:03;;;;;;;7.23;3.83;;;13.20;99.90;;;;;;4993065;28;21003;-80
2021/07/14 03:22:30;;;;;;;3.80;3.33;;;13.20;99.90;;;;;;4994611;28;20432;-80
2021/07/14 03:24:59;;;;;;;5.70;3.50;;;13.30;99.90;;;;;;4996964;28;20447;-83
2021/07/14 03:27:26;;;;;;;5.40;3.50;;;13.20;99.90;;;;;;4996860;28;20456;-84
2021/07/14 03:29:54;;;;;;;5.80;3.63;;;13.30;99.90;;;;;;4996794;28;21046;-84
2021/07/14 03:32:21;;;;;;;3.97;3.67;;;13.30;99.90;;;;;;4996833;28;20520;-84
2021/07/14 03:34:49;;;;;;;5.80;3.43;;;13.30;99.90;;;;;;4996653;28;20484;-84
2021/07/14 03:37:16;;;;;;;5.30;3.90;;;13.30;99.90;;;;;;5002986;28;20483;-88
2021/07/14 03:39:44;;;;;;;4.50;3.30;;;13.20;99.90;;;;;;5008179;28;20556;-87
2021/07/14 03:42:15;;;;;;;5.73;4.00;;;13.20;99.90;;;;;;5006972;28;20457;-88
2021/07/14 03:44:43;;;;;;;4.30;3.90;;;13.20;99.90;;;;;;5008662;28;20433;-87
2021/07/14 03:47:11;;;;;;;4.57;4.07;;;13.20;99.90;;;;;;5007331;28;20484;-88
2021/07/14 03:49:39;;;;;;;3.87;3.50;;;13.20;99.90;;;;;;5001461;28;20503;-88
2021/07/14 03:52:07;;;;;;;7.07;3.83;;;13.20;99.90;;;;;;4997092;28;20437;-89
2021/07/14 03:54:35;;;;;;;3.57;3.27;;;13.30;99.90;;;;;;4997196;28;20452;-88
2021/07/14 03:57:03;;;;;;;6.67;3.57;;;13.20;99.90;;;;;;4996733;28;20436;-87
2021/07/14 03:59:31;;;;;;;3.83;2.97;;;13.20;99.90;;;;;;4997218;28;20807;-88
2021/07/14 04:01:59;;;;;;;3.13;2.93;;;13.20;99.90;;;;;;4996536;28;20460;-88
2021/07/14 04:04:26;;;;;;;3.20;2.60;;;13.30;99.90;;;;;;4996459;28;20444;-84
2021/07/14 04:06:59;;;;;;;8.53;3.40;;;13.30;99.90;;;;;;4995922;28;20451;-84
2021/07/14 04:09:27;;;;;;;2.87;2.67;;;13.30;99.90;;;;;;4995918;28;20481;-84
2021/07/14 04:11:57;;;;;;;3.53;3.23;;;13.40;99.90;;;;;;4996113;28;20452;-84
2021/07/14 04:14:25;;;;;;;3.70;2.90;;;13.40;99.90;;;;;;4995992;28;20471;-84
2021/07/14 04:16:53;;;;;;;4.13;3.73;;;13.40;99.90;;;;;;4995722;28;20448;-84
2021/07/14 04:19:20;;;;;;;5.03;3.47;;;13.40;99.90;;;;;;4995866;28;20484;-84
2021/07/14 04:21:47;;;;;;;4.43;3.33;;;13.40;99.90;;;;;;4995947;28;20448;-83
2021/07/14 04:24:15;;;;;;;6.20;3.87;;;13.30;99.90;;;;;;4995532;28;20825;-84
2021/07/14 04:26:42;;;;;;;3.47;3.23;;;13.30;99.90;;;;;;4995844;28;20445;-84
2021/07/14 04:29:08;;;;;;;4.90;3.27;;;13.30;99.90;;;;;;4995677;28;20478;-84
2021/07/14 04:31:37;;;;;;;3.50;3.20;;;13.40;99.90;;;;;;4995776;28;20453;-84
2021/07/14 04:34:05;;;;;;;4.23;3.00;;;13.30;99.90;;;;;;4995915;28;20456;-87
2021/07/14 04:36:33;;;;;;;3.60;3.30;;;13.40;99.90;;;;;;4996022;28;20484;-88
2021/07/14 04:39:00;;;;;;;3.33;2.57;;;13.40;99.90;;;;;;4995807;28;20964;-88
2021/07/14 04:41:27;;;;;;;3.13;2.83;;;13.40;99.90;;;;;;4996421;28;20444;-88
2021/07/14 04:43:56;;;;;;;6.00;3.80;;;13.40;99.90;;;;;;4996302;28;20902;-87
2021/07/14 04:46:22;;;;;;;4.90;3.60;;;13.30;99.90;;;;;;4995721;28;20987;-88
2021/07/14 04:48:49;;;;;;;3.40;3.10;;;13.30;99.90;;;;;;4995472;28;20481;-88
2021/07/14 04:51:17;;;;;;;3.33;2.83;;;13.30;99.90;;;;;;4995933;28;20432;-86
2021/07/14 04:53:44;;;;;;;4.43;2.87;;;13.40;99.90;;;;;;4995959;28;20448;-86
2021/07/14 04:56:12;;;;;;;2.90;2.70;;;13.40;99.90;;;;;;4996018;28;20488;-87
2021/07/14 04:58:39;;;;;;;3.93;2.83;;;13.40;99.90;;;;;;4995783;28;20477;-83
2021/07/14 05:01:06;;;;;;;3.17;2.90;;;13.40;99.90;;;;;;4995141;28;20484;-82
2021/07/14 05:03:33;;;;;;;3.00;2.70;;;13.50;99.90;;;;;;4995121;28;20492;-83
2021/07/14 05:05:59;;;;;;;3.90;2.70;;;13.40;99.90;;;;;;4994795;28;20806;-82
2021/07/14 05:08:28;;;;;;;3.47;2.93;;;13.40;99.90;;;;;;4994953;28;20483;-82
2021/07/14 05:10:54;;;;;;;2.50;2.40;;;13.40;99.90;;;;;;4994991;28;20475;-83
2021/07/14 05:13:21;;;;;;;3.20;3.00;;;13.40;99.90;;;;;;4994607;28;20983;-82
2021/07/14 05:15:48;;;;;;;3.13;2.90;;;13.40;99.90;;;;;;4994785;28;20495;-82
2021/07/14 05:18:15;;;;;;;4.20;3.57;;;13.50;99.90;;;;;;4994779;28;20472;-82
2021/07/14 05:20:42;;;;;;;3.60;3.30;;;13.50;99.90;;;;;;4994796;28;20452;-83
2021/07/14 05:23:09;;;;;;;3.37;3.07;;;13.50;99.90;;;;;;4994768;28;20444;-82
2021/07/14 05:25:37;;;;;;;3.50;3.30;;;13.60;99.90;;;;;;4994959;28;20777;-83
2021/07/14 05:28:05;;;;;;;3.07;2.80;;;13.60;99.90;;;;;;4994318;28;20441;-83
2021/07/14 05:30:32;;;;;;;3.10;2.87;;;13.60;99.90;;;;;;4994681;28;20460;-83
2021/07/14 05:32:59;;;;;;;4.60;3.03;;;13.60;99.90;;;;;;4994390;28;20445;-82
2021/07/14 05:35:26;;;;;;;3.27;2.97;;;13.60;99.90;;;;;;4994252;28;20491;-82
2021/07/14 05:37:53;;;;;;;3.93;3.53;;;13.70;99.90;;;;;;4994465;28;20448;-83
2021/07/14 05:40:20;;;;;;;5.57;3.03;;;13.70;99.90;;;;;;4994528;28;20440;-83
2021/07/14 05:42:48;;;;;;;3.00;2.70;;;13.70;99.90;;;;;;4994075;28;20948;-83
2021/07/14 05:45:15;;;;;;;2.80;2.60;;;13.70;99.90;;;;;;4993812;28;20466;-83
2021/07/14 05:47:42;;;;;;;3.10;2.87;;;13.70;99.90;;;;;;4993901;28;20516;-83
2021/07/14 05:50:09;;;;;;;3.53;3.23;;;13.70;99.90;;;;;;4994205;28;20480;-83
2021/07/14 05:52:36;;;;;;;4.17;3.70;;;13.70;99.90;;;;;;4994343;28;20437;-82
2021/07/14 05:55:04;;;;;;;2.70;2.60;;;13.70;99.90;;;;;;4994218;28;20475;-83
2021/07/14 05:57:31;;;;;;;3.67;3.27;;;13.80;99.90;;;;;;4994645;28;20452;-87
2021/07/14 05:59:59;;;;;;;3.53;3.23;;;13.80;99.90;;;;;;4994675;28;20448;-87
2021/07/14 06:02:26;;;;;;;2.53;2.33;;;13.80;99.90;;;;;;4995191;28;20453;-87
2021/07/14 06:04:54;;;;;;;3.40;3.10;;;13.80;99.90;;;;;;4977572;28;20456;-87
2021/07/14 06:07:21;;;;;;;3.40;3.10;;;13.90;99.90;;;;;;4995109;28;20448;-86
2021/07/14 06:09:47;;;;;;;3.17;2.97;;;13.90;99.90;;;;;;4994824;28;20476;-87
2021/07/14 06:12:14;;;;;;;3.30;3.00;;;13.80;99.90;;;;;;4994684;28;20429;-87
2021/07/14 06:14:43;;;;;;;3.57;2.93;;;13.90;99.90;;;;;;4995074;28;20460;-87
2021/07/14 06:17:11;;;;;;;3.00;2.80;;;13.80;99.90;;;;;;4994776;28;20483;-88
2021/07/14 06:19:38;;;;;;;2.83;2.63;;;13.90;99.90;;;;;;5000149;28;20475;-87
2021/07/14 06:22:05;;;;;;;2.80;2.70;;;14.00;99.90;;;;;;4996244;28;20463;-87
2021/07/14 06:24:31;;;;;;;3.43;3.07;;;14.00;99.90;;;;;;5001459;28;20456;-86
2021/07/14 06:26:58;;;;;;;4.70;3.07;;;14.00;99.90;;;;;;4994752;28;20476;-87
2021/07/14 06:29:25;;;;;;;3.73;3.43;;;14.10;99.90;;;;;;4997887;28;20502;-86
2021/07/14 06:31:52;;;;;;;3.53;3.00;;;14.10;99.90;;;;;;5014032;28;20449;-86
2021/07/14 06:34:20;;;;;;;5.47;3.10;;;14.10;99.90;;;;;;4995566;28;20444;-87
2021/07/14 06:36:47;;;;;;;2.67;2.50;;;14.10;99.90;;;;;;4994655;28;20476;-87
2021/07/14 06:39:14;;;;;;;5.43;3.07;;;14.10;99.90;;;;;;4994642;28;20904;-87
2021/07/14 06:41:41;;;;;;;3.27;3.07;;;14.20;99.90;;;;;;4994664;28;20441;-87
2021/07/14 06:44:08;;;;;;;3.27;2.97;;;14.20;99.90;;;;;;4993875;28;20460;-80
2021/07/14 06:46:35;;;;;;;5.10;3.43;;;14.20;99.90;;;;;;4994036;28;20453;-80
2021/07/14 06:49:02;;;;;;;4.03;3.73;;;14.30;99.90;;;;;;4993632;28;20956;-79
2021/07/14 06:51:31;;;;;;;3.77;3.37;;;14.40;99.90;;;;;;4993365;28;20464;-80
2021/07/14 06:53:57;;;;;;;3.67;3.10;;;14.40;99.90;;;;;;4993551;28;20457;-80
2021/07/14 06:56:24;;;;;;;3.33;3.13;;;14.40;99.90;;;;;;4994548;28;20489;-80
2021/07/14 06:58:51;;;;;;;2.90;2.70;;;14.50;99.90;;;;;;4997102;28;20456;-80
2021/07/14 07:01:18;;;;;;;3.37;3.07;;;14.50;99.90;;;;;;4997388;28;20814;-80
2021/07/14 07:03:46;;;;;;;4.00;3.10;;;14.50;99.90;;;;;;4996962;28;20464;-80
2021/07/14 07:06:13;;;;;;;4.03;3.27;;;14.50;99.90;;;;;;4997260;28;20572;-79
2021/07/14 07:08:41;;;;;;;2.80;2.60;;;14.50;99.90;;;;;;4997147;28;20476;-80
2021/07/14 07:11:08;;;;;;;2.83;2.63;;;14.50;99.90;;;;;;4996876;28;20440;-80
2021/07/14 07:13:35;;;;;;;2.60;2.40;;;14.60;99.90;;;;;;4997092;28;20459;-79
2021/07/14 07:16:03;;;;;;;2.63;2.43;;;14.60;99.90;;;;;;4997012;28;20491;-79
2021/07/14 07:18:30;;;;;;;3.23;3.03;;;14.60;99.90;;;;;;4997004;28;20480;-79
2021/07/14 07:20:57;;;;;;;2.77;2.57;;;14.70;99.90;;;;;;4996779;28;20444;-81
2021/07/14 07:23:25;;;;;;;2.90;2.70;;;14.80;99.90;;;;;;4996992;28;20460;-82
2021/07/14 07:25:54;;;;;;;4.43;2.50;;;14.80;99.90;;;;;;4996927;28;20467;-82
2021/07/14 07:28:25;;;;;;;2.50;2.30;;;14.80;99.90;;;;;;4997053;28;20860;-83
2021/07/14 07:30:52;;;;;;;2.53;2.43;;;14.80;99.90;;;;;;4996906;28;20440;-82
2021/07/14 07:33:19;;;;;;;2.73;2.40;;;14.80;99.90;;;;;;4996792;28;20455;-82
2021/07/14 07:35:46;;;;;;;3.37;2.87;;;14.80;99.90;;;;;;4996687;28;20463;-82
2021/07/14 07:38:12;;;;;;;2.90;2.70;;;14.90;99.90;;;;;;4996349;28;20476;-82
2021/07/14 07:40:41;;;;;;;3.10;2.90;;;15.00;99.90;;;;;;4996703;28;20455;-82
2021/07/14 07:43:09;;;;;;;2.80;2.63;;;15.00;99.90;;;;;;4996571;28;20456;-83
2021/07/14 07:45:36;;;;;;;2.53;2.30;;;15.10;99.90;;;;;;4996373;28;20932;-82
2021/07/14 07:48:03;;;;;;;2.87;2.67;;;15.10;99.90;;;;;;4996088;28;20495;-82
2021/07/14 07:50:30;;;;;;;3.17;2.60;;;15.10;99.90;;;;;;4996345;28;20467;-82
2021/07/14 07:52:56;;;;;;;2.47;2.37;;;15.10;99.90;;;;;;4996480;28;20452;-82
2021/07/14 07:55:23;;;;;;;2.93;2.60;;;15.10;99.90;;;;;;4996454;28;20456;-82
2021/07/14 07:57:50;;;;;;;2.93;2.73;;;15.20;99.90;;;;;;4996094;28;20487;-82
2021/07/14 08:00:21;;;;;;;2.57;2.47;;;15.20;99.90;;;;;;4996016;28;20456;-82
2021/07/14 08:02:48;;;;;;;3.00;2.80;;;15.30;99.90;;;;;;4996302;28;20452;-81
2021/07/14 08:05:15;;;;;;;2.33;2.23;;;15.30;99.90;;;;;;4995910;28;20995;-81
2021/07/14 08:07:43;;;;;;;2.93;2.73;;;15.20;99.90;;;;;;4995180;28;20455;-81
2021/07/14 08:10:11;;;;;;;2.50;2.30;;;15.30;99.90;;;;;;4995703;28;21008;-81
2021/07/14 08:12:39;;;;;;;2.87;2.67;;;15.30;99.90;;;;;;4995988;28;20815;-81
2021/07/14 08:15:07;;;;;;;5.67;2.60;;;15.30;99.90;;;;;;4995580;28;20959;-81
2021/07/14 08:17:35;;;;;;;4.50;2.43;;;15.40;99.90;;;;;;4995815;28;20483;-81
2021/07/14 08:20:02;;;;;;;3.03;2.83;;;15.40;99.90;;;;;;4995812;28;20480;-85
2021/07/14 08:22:29;;;;;;;2.77;2.60;;;15.40;99.90;;;;;;4995754;28;20457;-85
2021/07/14 08:24:56;;;;;;;3.07;2.73;;;15.40;99.90;;;;;;4995868;28;20467;-86
2021/07/14 08:27:24;;;;;;;3.60;2.73;;;15.40;99.90;;;;;;4995855;28;20451;-82
2021/07/14 08:29:51;;;;;;;2.90;2.70;;;15.50;99.90;;;;;;4995736;28;20484;-82
2021/07/14 08:32:18;;;;;;;3.67;2.70;;;15.50;99.90;;;;;;4995704;28;20452;-82
2021/07/14 08:34:47;;;;;;;4.40;2.93;;;15.60;99.90;;;;;;4995521;28;20421;-82
2021/07/14 08:37:13;;;;;;;2.50;2.33;;;15.60;99.90;;;;;;4995301;28;20476;-82
2021/07/14 08:39:40;;;;;;;8.30;3.20;;;15.70;99.90;;;;;;4995552;28;20472;-82
2021/07/14 08:42:07;;;;;;;4.50;3.20;;;15.80;99.90;;;;;;4995260;28;20448;-80
2021/07/14 08:44:35;;;;;;;2.70;2.50;;;15.80;99.90;;;;;;4995490;28;20448;-80
2021/07/14 08:47:02;;;;;;;4.00;3.03;;;15.90;99.90;;;;;;4995196;28;20472;-80
2021/07/14 08:49:29;;;;;;;2.67;2.53;;;15.90;99.90;;;;;;4995288;28;20481;-80
2021/07/14 08:51:58;;;;;;;2.87;2.67;;;16.00;99.90;;;;;;4995019;28;20444;-80
2021/07/14 08:54:25;;;;;;;3.00;2.67;;;15.90;99.90;;;;;;4995131;28;20470;-80
2021/07/14 08:56:52;;;;;;;4.97;4.10;;;16.00;99.90;;;;;;4994924;28;20476;-80
2021/07/14 08:59:20;;;;;;;2.90;2.70;;;16.00;99.90;;;;;;4994862;28;20807;-80
2021/07/14 09:01:48;;;;;;;3.20;3.00;;;16.10;99.90;;;;;;4994869;28;20449;-82
2021/07/14 09:04:14;;;;;;;2.73;2.63;;;16.10;99.90;;;;;;4995117;28;20463;-82
2021/07/14 09:06:42;;;;;;;3.77;3.47;;;16.10;99.90;;;;;;4994833;28;20526;-82
2021/07/14 09:09:10;;;;;;;3.70;3.40;;;16.10;99.90;;;;;;4994953;28;20468;-82
2021/07/14 09:11:54;;;;;;;3.17;2.97;;;16.20;99.90;;;;;;4994981;28;20451;-82
2021/07/14 09:14:28;;;;;;;5.73;3.40;;;16.20;99.90;;;;;;4994744;28;20908;-83
2021/07/14 09:16:55;;;;;;;4.20;3.80;;;16.20;99.90;;;;;;4994804;28;20487;-83
2021/07/14 09:19:24;;;;;;;3.97;3.67;;;16.20;99.90;;;;;;4993974;28;20483;-83
2021/07/14 09:21:52;;;;;;;3.93;3.60;;;16.30;99.90;;;;;;4994521;28;20468;-80
2021/07/14 09:24:25;;;;;;;2.97;2.77;;;16.40;99.90;;;;;;4994717;28;20463;-80
2021/07/14 09:26:53;;;;;;;3.00;2.80;;;16.40;99.90;;;;;;4994743;28;20440;-83
2021/07/14 09:29:19;;;;;;;2.90;2.60;;;16.50;99.90;;;;;;4994646;28;20469;-83
2021/07/14 09:31:47;;;;;;;7.03;3.47;;;16.60;99.90;;;;;;4994586;28;20445;-80
2021/07/14 09:34:28;;;;;;;8.03;4.57;;;16.70;99.90;;;;;;4994463;28;20459;-80
2021/07/14 09:37:03;;;;;;;3.87;3.67;;;16.70;99.90;;;;;;4994482;28;20519;-85
2021/07/14 09:39:36;;;;;;;3.10;2.90;;;16.70;99.90;;;;;;4994591;28;20494;-87
2021/07/14 09:42:08;;;;;;;2.87;2.67;;;16.80;99.90;;;;;;4995216;28;20495;-88
2021/07/14 09:44:36;;;;;;;3.20;2.53;;;16.70;99.90;;;;;;4996720;28;20429;-88
2021/07/14 09:47:11;;;;;;;2.83;2.63;;;16.80;99.90;;;;;;4996759;28;20487;-88
2021/07/14 09:49:38;;;;;;;3.40;3.10;;;16.80;99.90;;;;;;4995674;28;21046;-88
2021/07/14 09:52:07;;;;;;;2.83;2.63;;;16.90;99.90;;;;;;4994698;28;20455;-81
2021/07/14 09:54:36;;;;;;;2.43;2.30;;;17.10;99.90;;;;;;4994054;28;20440;-84
2021/07/14 09:57:14;;;;;;;3.17;2.73;;;17.20;99.90;;;;;;4994154;28;20488;-84
2021/07/14 09:59:41;;;;;;;2.90;2.70;;;17.20;99.90;;;;;;4993826;28;20508;-84
2021/07/14 10:02:12;;;;;;;2.67;2.53;;;17.30;99.90;;;;;;4994097;28;20471;-82
2021/07/14 10:04:40;;;;;;;2.87;2.67;;;17.40;99.90;;;;;;4994070;28;20429;-82
2021/07/14 10:07:12;;;;;;;2.50;2.30;;;17.50;99.90;;;;;;4993835;28;20488;-85
2021/07/14 10:09:40;;;;;;;2.60;2.40;;;17.60;99.90;;;;;;4994047;28;20480;-86
2021/07/14 10:12:26;;;;;;;2.53;2.40;;;17.70;99.90;;;;;;5000914;28;20444;-85
2021/07/14 10:14:53;;;;;;;2.57;2.37;;;17.70;99.90;;;;;;4994317;28;20944;-85
2021/07/14 10:17:35;;;;;;;2.20;2.10;;;17.80;99.90;;;;;;4994948;28;20484;-84
2021/07/14 10:20:32;;;;;;;2.37;2.27;;;17.90;99.90;;;;;;4995368;28;20491;-88
2021/07/14 10:23:01;;;;;;;2.27;2.17;;;18.00;99.90;;;;;;4995603;28;20437;-86
2021/07/14 10:25:29;;;;;;;3.83;2.60;;;18.20;99.90;;;;;;4994948;28;20806;-88
2021/07/14 10:27:58;;;;;;;2.03;1.93;;;18.20;99.90;;;;;;4996157;28;20451;-89
2021/07/14 10:30:26;;;;;;;2.07;1.77;;;18.30;99.90;;;;;;4996632;28;20925;-91
2021/07/14 10:32:54;;;;;;;1.67;1.57;;;18.60;99.90;;;;;;4999183;28;20433;-88
2021/07/14 10:35:24;;;;;;;2.40;1.70;;;18.80;99.90;;;;;;5000716;28;20816;-89
2021/07/14 10:37:52;;;;;;;1.40;1.33;;;19.20;99.90;;;;;;5000486;28;20848;-89
2021/07/14 10:40:21;;;;;;;1.07;1.07;;;19.50;99.90;;;;;;5000071;28;20453;-83
2021/07/14 10:42:50;;;;;;;1.10;1.10;;;19.70;99.90;;;;;;4997864;28;20452;-82
2021/07/14 10:45:18;;;;;;;1.97;1.40;;;19.80;99.90;;;;;;4997391;28;20443;-83
2021/07/14 10:47:46;;;;;;;1.00;0.90;;;20.00;99.90;;;;;;5001718;28;20476;-88
2021/07/14 10:50:13;;;;;;;1.13;1.13;;;20.10;99.90;;;;;;4998576;28;20477;-92
2021/07/14 10:52:41;;;;;;;0.97;0.97;;;20.20;99.90;;;;;;5003031;28;20458;-85
2021/07/14 10:55:11;;;;;;;1.13;1.13;;;20.20;99.90;;;;;;5000927;28;20456;-84
2021/07/14 10:57:39;;;;;;;0.97;0.90;;;20.00;99.90;;;;;;5000544;28;20476;-86
2021/07/14 11:00:09;;;;;;;4.07;1.53;;;19.90;99.90;;;;;;4997526;28;20509;-85
2021/07/14 11:02:40;;;;;;;1.33;1.23;;;20.10;99.90;;;;;;4998482;28;20442;-86
2021/07/14 11:05:09;;;;;;;1.30;1.20;;;20.10;99.90;;;;;;5000318;28;20897;-90
2021/07/14 11:07:41;;;;;;;1.00;1.00;;;20.20;99.90;;;;;;4998314;28;20444;-82
2021/07/14 11:10:25;;;;;;;1.57;1.50;;;20.30;99.90;;;;;;4996972;28;20452;-84
2021/07/14 11:12:52;;;;;;;1.20;1.10;;;20.30;99.90;;;;;;4995105;28;20447;-84
2021/07/14 11:15:30;;;;;;;1.03;0.93;;;20.30;99.90;;;;;;4998629;28;20456;-91
2021/07/14 11:17:57;;;;;;;1.10;1.10;;;20.10;99.90;;;;;;5005795;28;20436;-89
2021/07/14 11:20:38;;;;;;;1.50;1.30;;;20.20;99.90;;;;;;5014046;28;20843;-90
2021/07/14 11:23:19;;;;;;;1.00;1.00;;;20.20;99.90;;;;;;4998591;28;20439;-88
2021/07/14 11:25:51;;;;;;;1.30;1.30;;;20.30;99.90;;;;;;4998066;28;20448;-88
2021/07/14 11:28:19;;;;;;;1.20;1.10;;;20.40;99.90;;;;;;4997368;28;20463;-88
2021/07/14 11:30:49;;;;;;;1.20;1.10;;;20.50;99.90;;;;;;4998362;28;20434;-89
2021/07/14 11:33:28;;;;;;;1.10;1.10;;;20.40;99.90;;;;;;4998200;28;20432;-88
2021/07/14 11:35:59;;;;;;;2.10;1.20;;;20.50;99.90;;;;;;4998092;28;20915;-88
2021/07/14 11:38:30;;;;;;;1.03;0.90;;;20.50;99.90;;;;;;4998025;28;20483;-88
2021/07/14 11:40:58;;;;;;;1.00;1.00;;;20.60;99.90;;;;;;4997752;28;20942;-88
2021/07/14 11:43:29;;;;;;;1.20;1.10;;;20.60;99.90;;;;;;4996885;28;20448;-89
2021/07/14 11:46:04;;;;;;;1.33;1.20;;;20.90;99.90;;;;;;4998069;28;20782;-85
2021/07/14 11:48:34;;;;;;;0.90;0.90;;;20.90;99.90;;;;;;4997062;28;20486;-89
2021/07/14 11:51:04;;;;;;;0.90;0.90;;;20.70;99.90;;;;;;4997440;28;20448;-90
2021/07/14 11:53:40;;;;;;;1.20;1.20;;;20.70;99.90;;;;;;4997839;28;20888;-89
2021/07/14 11:56:09;;;;;;;1.87;1.03;;;20.70;99.90;;;;;;4997978;28;20436;-88
2021/07/14 11:59:14;;;;;;;1.07;1.03;;;20.60;99.90;;;;;;4998002;28;20490;-87
2021/07/14 12:02:02;;;;;;;1.00;1.00;;;20.50;99.90;;;;;;4997554;28;20474;-89
2021/07/14 12:04:40;;;;;;;1.00;1.00;;;20.50;99.90;;;;;;4997343;28;20944;-83
2021/07/14 12:07:13;;;;;;;1.20;1.10;;;20.50;99.90;;;;;;4996327;28;20416;-83
2021/07/14 12:09:45;;;;;;;1.07;1.07;;;20.40;99.90;;;;;;4996094;28;20476;-83
2021/07/14 12:12:18;;;;;;;1.17;1.17;;;20.30;99.90;;;;;;4995832;28;20447;-83
2021/07/14 12:14:46;;;;;;;1.93;1.20;;;20.30;99.90;;;;;;4996631;28;20433;-84
2021/07/14 12:17:17;;;;;;;1.17;0.90;;;20.40;99.90;;;;;;4995940;28;20443;-83
2021/07/14 12:19:45;;;;;;;2.33;1.00;;;20.50;99.90;;;;;;4995811;28;20487;-82
2021/07/14 12:22:15;;;;;;;0.90;0.90;;;20.50;99.90;;;;;;4995915;28;20472;-83
2021/07/14 12:24:44;;;;;;;0.90;0.90;;;20.70;99.90;;;;;;4995536;28;20982;-83
2021/07/14 12:27:16;;;;;;;1.00;1.00;;;20.80;99.90;;;;;;4995832;28;20447;-83
2021/07/14 12:29:47;;;;;;;1.37;0.97;;;20.80;99.90;;;;;;4995751;28;20487;-83
2021/07/14 12:32:16;;;;;;;0.80;0.80;;;20.80;99.90;;;;;;4995846;28;20436;-88
2021/07/14 12:34:47;;;;;;;1.20;0.90;;;20.80;99.90;;;;;;4996908;28;20822;-90
2021/07/14 12:37:14;;;;;;;0.93;0.93;;;20.90;99.90;;;;;;4996501;28;20437;-87
2021/07/14 12:39:41;;;;;;;0.90;0.90;;;21.00;99.90;;;;;;4996255;28;20474;-88
2021/07/14 12:42:09;;;;;;;1.00;1.00;;;21.10;99.90;;;;;;4996396;28;20448;-89
2021/07/14 12:44:37;;;;;;;4.97;2.20;;;21.00;99.90;;;;;;4996517;28;20463;-89
2021/07/14 12:47:17;;;;;;;0.90;0.90;;;21.10;99.90;;;;;;4996254;28;20511;-91
2021/07/14 12:49:44;;;;;;;0.80;0.80;;;21.00;99.90;;;;;;4996393;28;20456;-85
2021/07/14 12:52:13;;;;;;;1.00;0.80;;;20.80;99.90;;;;;;4987822;28;20440;-89
2021/07/14 12:54:41;;;;;;;0.70;0.70;;;20.70;99.90;;;;;;4996221;28;20539;-89
2021/07/14 12:57:21;;;;;;;0.70;0.70;;;20.70;99.90;;;;;;4996094;28;20483;-89
2021/07/14 12:59:49;;;;;;;0.80;0.80;;;20.70;99.90;;;;;;4996324;28;20483;-89
2021/07/14 13:02:18;;;;;;;0.73;0.73;;;20.70;99.90;;;;;;4996531;28;20451;-90
2021/07/14 13:04:46;;;;;;;1.00;1.00;;;20.50;99.90;;;;;;4996182;28;20498;-90